New Franklin, Ohio
Current Conditions -  °F | °C
As of 10:51 AM on Monday 24 Nov 2014 (Local Time) from KCAK Reporting Station
Broken Clouds Broken Clouds  
Wind Chill: 63°   Ceiling: 3200
Heat Index: 63°   Visibility: 10mi
Dew Point: 49°   Wind: 31mph
Humidity: 60%   Direction: 210°SSW
Pressure: 29.32"   Gusts: 47mph
Location:  40.7427°N, 81.0929°W
Report Text: KCAK 241551Z 21027G41KT 10SM BKN032 BKN075 17/09 A2932 RMK AO2 PK WND 21041/1544 SLP924 T01720094 $
Loading
Personal Weather Stations






























Interactive Weather Map New forecast layout! Learn more

10-Day Weather Forecast

Advertisements
Track Severe Weather on mobile